Felipe Pacheco

Scout - Grêmio
14 Okt 2027
Donnerstag
Verarbeitung

Persönlichkeit

Anpassungsfähigkeit (20) Ehrgeiz (2) Kontroverse (10) Loyalität (12) Druck (15) Professionalität (19) Fairness (14) Temperament (11)

Profil

Trainerstil Demokratisch
Lizenz Nationale A
Entschlossenheit 13
Menschenführung 8
Motivation 11
Disziplin 9
Arbeitszufriedenheit
100%
Ermüdung
0%
Rolle Scout
Gehalt 109.3K p/W
Vertrag 14.03.2030

Leistung

Verhalten Gut
Trainingseffektivität
65%
Spielerentwicklung
35%
Verletzungsprävention
40%
Taktische Umsetzung
70%

Letzte Ereignisse

Nahm an einer Scouting-Besprechung teil jetzt
Empfahl ein Transferziel jetzt
Nahm an einer Scouting-Besprechung teil 7T her
Empfahl ein Transferziel 7T her
Nahm an einer Scouting-Besprechung teil 7T her
Spieler begutachtet 7T her
Empfahl ein Transferziel 14T her
Nahm an einer Scouting-Besprechung teil 14T her

Aktuell beobachtet

163
Spieler Verein Status Fähigkeit Vertrauen Beobachtet Zuletzt beobachtet Letzte Stimme
Ricky Atletico Venezuela Aktiv 97 / 102 40% 1 13.10.2027 -
Ignacio Fernández Boston River Aktiv 92 / 100 40% 1 13.10.2027 -
Ayden Heaven Luton Town Aktiv 146 / 146 40% 1 13.10.2027 -
Marvelous Freedom Ikorodu City Aktiv 90 / 98 40% 1 06.10.2027 -
Eduardo Felicíssimo Sporting CP Aktiv 119 / 131 40% 1 06.10.2027 -
Brooke Norton-Cuffy Inter Miami CF Aktiv 138 / 140 40% 2 07.09.2027 -
Juan Manuel Sanabria Real Salt Lake Aktiv 128 / 125 40% 1 07.09.2027 -
Japhet Sery Larsen Philadelphia Union Aktiv 127 / 123 40% 1 07.09.2027 -
Matheus Bidu Corinthians Aktiv 129 / 126 40% 3 04.09.2027 -
Mateo Mendoza Godoy Cruz Aktiv 128 / 127 40% 2 04.09.2027 -
Alhassan Yusuf New England Revolution Aktiv 128 / 126 40% 2 31.08.2027 -
Bruno Leyes Godoy Cruz Aktiv 127 / 130 40% 2 31.08.2027 -
Steven Alzate Atlanta United FC Aktiv 128 / 130 40% 1 31.08.2027 -
Renato Tapia Al Wasl Aktiv 139 / 142 40% 1 24.08.2027 -
Álvaro Carrillo APOEL Aktiv 128 / 127 40% 1 24.08.2027 -
Guilherme Arana Fluminense Aktiv 136 / 136 40% 1 21.08.2027 -
Keven Schlotterbeck FC Augsburg Aktiv 142 / 140 40% 1 21.08.2027 -
Curtis Jones Inter Aktiv 162 / 164 40% 8 15.08.2027 -
Fikayo Tomori AC Milan Aktiv 155 / 158 40% 1 15.08.2027 -
Manu Koné AS Roma Aktiv 168 / 166 40% 4 12.08.2027 -
Alessio Romagnoli Lazio Aktiv 151 / 148 40% 1 12.08.2027 -
Adrià Altimira Deportivo La Coruña Aktiv 138 / 131 40% 1 12.08.2027 -
Oumar Solet Udinese Aktiv 152 / 152 40% 1 11.08.2027 -
Josh Doig Sassuolo Aktiv 141 / 137 40% 1 11.08.2027 -
Adam Wharton Crystal Palace Aktiv 157 / 159 40% 1 09.08.2027 -
Christos Mouzakitis Hull City Aktiv 137 / 148 40% 1 09.08.2027 -
Dara O'Shea Ipswich Town Aktiv 141 / 141 40% 2 07.08.2027 -
Tyler Adams Bournemouth Aktiv 158 / 157 40% 3 07.08.2027 -
Sven Botman Newcastle United Aktiv 163 / 166 40% 2 07.08.2027 -
Ethan Galbraith Swansea City Aktiv 138 / 131 40% 3 06.08.2027 -
Mats Wieffer Brighton Aktiv 152 / 153 40% 1 06.08.2027 -
Saša Lukić Ipswich Town Aktiv 146 / 140 40% 2 04.08.2027 -
Callum Brittain Middlesbrough Aktiv 135 / 132 40% 4 04.08.2027 -
Toby Collyer West Bromwich Albion Aktiv 137 / 144 40% 1 04.08.2027 -
Boubacar Kamara Aston Villa Aktiv 167 / 162 40% 4 02.08.2027 -
Imrân Louza Watford Aktiv 135 / 130 40% 1 02.08.2027 -
Óscar Mingueza Crystal Palace Aktiv 154 / 150 40% 4 19.07.2027 -
Ryan Sessegnon Fulham Aktiv 149 / 152 40% 4 19.07.2027 -
Jhosefer ABC Aktiv 109 / 109 95% 1 01.06.2027 Befürworten
Florentino Luís Ipswich Town Aktiv 142 / 139 40% 2 30.05.2027 -
Morgan Whittaker Middlesbrough Aktiv 133 / 131 40% 6 28.05.2027 -
Kevin Fulham Aktiv 151 / 145 40% 3 28.05.2027 -
Scott Twine Bristol City Aktiv 127 / 128 40% 1 28.05.2027 -
Marco Asensio Fenerbahce Aktiv 158 / 149 40% 3 26.05.2027 Beobachten
Francisco Conceição Juventus Aktiv 160 / 158 40% 2 26.05.2027 -
Georginio Rutter Brighton Aktiv 149 / 154 40% 2 26.05.2027 -
Jack Rudoni Coventry City Aktiv 136 / 128 40% 3 24.05.2027 -
Giacomo Raspadori Atalanta Aktiv 149 / 148 40% 6 24.05.2027 -
Jacob Ramsey Newcastle United Aktiv 153 / 148 40% 2 24.05.2027 -
Amadou Onana Aston Villa Aktiv 156 / 159 40% 2 21.05.2027 -
Hector Ramirez Newcastle United Aktiv 153 / 156 40% 1 21.05.2027 -
Adrien Truffert Bournemouth Aktiv 150 / 154 40% 2 19.05.2027 -
Andrey Oeste Aktiv 103 / 103 30% 1 / 1m 19.05.2027 -
Wellerson Sampaio Correa Aktiv 101 / 101 30% 1 / 1m 19.05.2027 -
Dango Ouattara Brentford Aktiv 148 / 140 40% 4 18.05.2027 -
Xavi Simons Tottenham Aktiv 159 / 159 40% 4 17.05.2027 -
Callum Hudson-Odoi Nottingham Forest Aktiv 152 / 149 40% 1 16.05.2027 -
Ousmane Diomande Nottingham Forest Aktiv 152 / 160 40% 2 15.05.2027 -
Yehor Yarmoliuk Brentford Aktiv 148 / 154 40% 2 15.05.2027 -
Kenny Tete Fulham Aktiv 143 / 139 40% 1 15.05.2027 -
Kenan Yıldız Juventus Aktiv 163 / 163 40% 1 10.05.2027 -
Matías Soulé AS Roma Aktiv 157 / 159 40% 1 10.05.2027 -
Quinten Timber Crystal Palace Aktiv 151 / 147 40% 1 09.05.2027 -
Léo Scienza Southampton Aktiv 139 / 136 40% 1 08.05.2027 -
Derry Murkin Derby County Aktiv 127 / 126 40% 2 07.05.2027 -
Nordi Mukiele Sunderland Aktiv 145 / 146 40% 1 07.05.2027 -
Tom Fellows Southampton Aktiv 134 / 129 40% 11 06.05.2027 -
Finn Azaz Southampton Aktiv 130 / 122 40% 4 04.05.2027 -
Harry Wilson Leeds United Aktiv 144 / 138 40% 1 04.05.2027 -
Mikkel Damsgaard Brentford Aktiv 147 / 144 40% 2 03.05.2027 -
Carlos Vicente Birmingham Aktiv 145 / 140 40% 2 02.05.2027 -
Othmane Maamma Watford Aktiv 126 / 134 40% 1 01.05.2027 -
Jan Paul van Hecke Tottenham Aktiv 159 / 160 40% 1 30.04.2027 -
Anton Stach Leeds United Aktiv 150 / 148 40% 2 29.04.2027 -
Kiernan Dewsbury-Hall Everton Aktiv 153 / 148 40% 1 29.04.2027 -
Welington Southampton Aktiv 133 / 129 40% 1 29.04.2027 -
Nico González Newcastle United Aktiv 162 / 156 40% 2 28.04.2027 -
Mario Dorgeles Braga Aktiv 136 / 133 40% 9 25.04.2027 -
Pau Víctor AVS Aktiv 141 / 137 40% 5 25.04.2027 -
Ricardo Horta Braga Aktiv 151 / 145 40% 5 25.04.2027 -
William Gomes Porto Aktiv 142 / 151 40% 4 24.04.2027 -
Renato Sanches AVS Aktiv 132 / 130 40% 2 22.04.2027 -
Víctor Gómez Braga Aktiv 142 / 137 40% 8 20.04.2027 -
Rodrigo Zalazar Sporting CP Aktiv 152 / 153 40% 2 20.04.2027 -
Samu Vitoria Guimaraes Aktiv 130 / 124 40% 4 15.04.2027 -
Diego Lainez Tigres Aktiv 132 / 131 40% 5 13.04.2027 -
Iván Fresneda Sporting CP Aktiv 142 / 147 40% 6 12.04.2027 -
Luís Guilherme Sporting CP Aktiv 130 / 134 40% 2 12.04.2027 -
Ozziel Herrera Tigres Aktiv 131 / 132 40% 5 12.04.2027 -
Francisco Moura Lusitânia Lourosa Aktiv 141 / 139 40% 9 11.04.2027 -
Shea Charles Southampton Aktiv 135 / 141 40% 2 11.04.2027 -
Kyle Walker-Peters West Ham United Aktiv 137 / 140 40% 1 10.04.2027 -
Lee Hyun-Ju Arouca Aktiv 123 / 117 40% 7 09.04.2027 -
Alejandro Zendejas Club America Aktiv 142 / 143 40% 2 09.04.2027 -
Gianluca Prestianni Benfica Aktiv 136 / 143 40% 3 09.04.2027 -
Telmo Arcanjo Vitoria Guimaraes Aktiv 125 / 120 40% 1 09.04.2027 -
Alfonso Trezza Arouca Aktiv 124 / 125 40% 1 08.04.2027 -
Gabri Martínez Braga Aktiv 130 / 137 40% 6 04.04.2027 -
Luis Quintero Torreense Aktiv 125 / 124 40% 4 04.04.2027 -
Juninho Pumas UNAM Aktiv 131 / 131 40% 3 03.04.2027 -
Jesús Ricardo Angulo Toluca Aktiv 135 / 128 40% 8 02.04.2027 -
Fredrik Aursnes Benfica Aktiv 151 / 150 40% 1 31.03.2027 -
Pepê Porto Aktiv 147 / 138 40% 3 28.03.2027 -
Luís Esteves Atlas Aktiv 130 / 131 40% 4 28.03.2027 -
Isaiah Jones Luton Town Aktiv 126 / 126 40% 1 28.03.2027 -
Valery Académico de Viseu Aktiv 126 / 121 40% 1 28.03.2027 -
Nuno Santos Sporting CP Aktiv 139 / 133 40% 5 24.03.2027 -
Víctor Dávila Club America Aktiv 129 / 129 40% 2 24.03.2027 -
Paulo Moreira Farense Aktiv 125 / 124 40% 2 22.03.2027 -
Bosun Lawal Stoke City Aktiv 129 / 125 40% 1 22.03.2027 -
Alan Varela Porto Aktiv 145 / 146 40% 6 19.03.2027 -
Alberto Costa Porto Aktiv 144 / 139 40% 14 18.03.2027 -
Gabriel Veron Porto Aktiv 128 / 129 40% 1 18.03.2027 -
Soungoutou Magassa West Ham United Aktiv 133 / 138 40% 1 14.03.2027 -
Lewis Ferguson Bologna Aktiv 145 / 141 40% 1 14.03.2027 -
Erick Sánchez OGC Nice Aktiv 142 / 145 40% 2 13.03.2027 -
Agustín Palavecino Cruz Azul Aktiv 139 / 134 40% 1 09.03.2027 -
André Silva Tondela Aktiv 129 / 122 40% 4 08.03.2027 -
Gonçalo Inácio Sporting CP Aktiv 147 / 148 40% 6 07.03.2027 -
Gustaf Lagerbielke Braga Aktiv 137 / 138 40% 2 07.03.2027 -
Aidan Morris Middlesbrough Aktiv 132 / 126 40% 1 07.03.2027 -
Rodrigo Pinheiro Famalicao Aktiv 127 / 132 40% 6 03.03.2027 -
Santi García Gil Vicente Aktiv 132 / 135 40% 9 03.03.2027 -
João Palhinha Benfica Aktiv 150 / 151 40% 2 01.03.2027 -
Derensili Sanches Fernandes Huddersfield Town Aktiv 125 / 127 40% 2 26.02.2027 -
Callum Doyle Wrexham Aktiv 130 / 131 40% 1 23.02.2027 -
Félix Lemaréchal Club Brugge Aktiv 137 / 132 40% 2 21.02.2027 -
Gustavo Silva Vitoria Guimaraes Aktiv 125 / 118 40% 1 21.02.2027 -
Heorhii Sudakov Benfica Aktiv 147 / 142 40% 4 20.02.2027 -
Brian Rodríguez Club America Aktiv 130 / 130 40% 1 11.02.2027 -
Lewis Morgan SuperSport United Aktiv 127 / 121 40% 2 07.02.2027 -
Christian Krasnodar Aktiv 137 / 128 40% 1 06.02.2027 -
Samuel Lino Flamengo Aktiv 140 / 142 40% 4 04.02.2027 -
Dodi Lukébakio Benfica Aktiv 146 / 141 40% 1 03.02.2027 -
Jordan Holsgrove Estoril Praia Aktiv 127 / 136 40% 2 25.01.2027 -
Rafik Guitane Estoril Praia Aktiv 129 / 136 40% 2 25.01.2027 -
João Simões Sporting CP Aktiv 127 / 138 40% 1 20.01.2027 -
Figueiredo Alverca Aktiv 125 / 133 40% 3 19.01.2027 -
Henry Mosquera Bragantino Aktiv 133 / 125 40% 2 15.01.2027 -
Bright Arrey-Mbi Braga Aktiv 131 / 130 40% 1 29.11.2026 -
Matheuzinho Corinthians Aktiv 129 / 127 40% 2 24.11.2026 -
Sergi Altimira Sporting CP Aktiv 140 / 138 40% 3 22.11.2026 -
Tomás Araújo Benfica Aktiv 149 / 149 40% 1 19.11.2026 -
Lucas Piton Vasco da Gama Aktiv 129 / 125 40% 3 16.11.2026 -
Mathias De Amorim Famalicao Aktiv 128 / 131 40% 1 16.11.2026 -
Zeno Debast Sporting CP Aktiv 145 / 141 40% 3 15.11.2026 -
Lukáš Červ Viktoria Plzen Aktiv 132 / 136 40% 1 14.11.2026 -
Victor Froholdt Porto Aktiv 147 / 164 40% 1 07.11.2026 -
Adalberto Carrasquilla Pumas UNAM Aktiv 128 / 124 40% 2 01.11.2026 -
Vitinho Botafogo Aktiv 130 / 133 40% 1 28.10.2026 -
Leandro Lozano Boca Juniors Aktiv 127 / 127 40% 1 28.10.2026 -
Caio Alexandre Bahia Aktiv 134 / 135 40% 3 15.10.2026 -
Dinis Pinto Moreirense Aktiv 128 / 124 40% 3 15.10.2026 -
Facundo Mura Inter Miami CF Aktiv 127 / 126 40% 2 05.10.2026 -
Aníbal Moreno River Plate Aktiv 134 / 130 40% 1 05.10.2026 -
Nicolás Romero Minnesota United FC Aktiv 125 / 132 40% 1 27.09.2026 -
Kevin Álvarez Club America Aktiv 135 / 134 40% 1 23.09.2026 -
Emerson Royal Flamengo Aktiv 136 / 128 40% 1 19.09.2026 -
Chico Kim Mirassol Aktiv 124 / 124 30% 1 / 1m 19.08.2026 -
Erick Vitória Aktiv 132 / 132 52% 1 / 1m 19.08.2026 -
Jader Santa Clara Aktiv 114 / 117 42% 1 / 1m 12.08.2026 -
Brais Méndez Columbus Crew Aktiv 148 / 143 40% 1 05.08.2026 -
Pablo Rosario Porto Aktiv 138 / 143 40% 1 04.08.2026 -